Cory, Indiana
Current Conditions -  °F | °C
As of 9:53 PM on Monday 22 Dec 2014 (Local Time) from KHUF Reporting Station
Overcast Overcast  
Wind Chill: 42°   Ceiling: 1900
Heat Index: 48°   Visibility: 10mi
Dew Point: 43°   Wind: 14mph
Humidity: 83%   Direction: 140°SE
Pressure: 29.62"   Gusts: NA
Location:  39.38°N, 87.21°W
Report Text: KHUF 230253Z 14012KT 10SM OVC019 09/06 A2962 RMK AO2 RAE0156 SLP033 P0000 60004 T00890061 58014
Loading
Personal Weather Stations






























Interactive Weather Map New forecast layout! Learn more

10-Day Weather Forecast

Advertisements
Track Severe Weather on mobile